Linwood Park, Ohio
Current Conditions -  °F | °C
As of 9:53 AM on Tuesday 21 Oct 2014 (Local Time) from KLPR Reporting Station
Light Rain Light Rain  
Wind Chill: 45°   Ceiling: 2800
Heat Index: 49°   Visibility: 10mi
Dew Point: 47°   Wind: 10mph
Humidity: 93%   Direction: 350°N
Pressure: 29.94"   Gusts: NA
Location:  41.3884°N, 82.3643°W
Report Text: KLPR 211353Z AUTO 35009KT 10SM -RA FEW012 BKN028 OVC042 09/08 A2994 RMK AO2 RAB11 SLP140 P0000 T00940083 TSNO
Loading
Personal Weather Stations






























Interactive Weather Map
Tropical Storm Tracking
New forecast layout! Learn more

10-Day Weather Forecast

Advertisements
Track Severe Weather on mobile